Time;durP1;ratioP1;P1;durP2;ratioP2;P2;SDS_P1;SDS_P2;PMS_P1;PMS_P2;Temp;Humidity;BMP_temperature;BMP_pressure;BME280_temperature;BME280_humidity;BME280_pressure;Samples;Min_cycle;Max_cycle;Signal;HPM_P1;HPM_P2
2023/01/10 00:00:54;;;;;;;0.95;0.40;;;4.50;99.90;;;;;;5016577;28;20709;-67
2023/01/10 00:03:21;;;;;;;0.70;0.30;;;4.60;99.90;;;;;;5029243;28;20204;-67
2023/01/10 00:05:48;;;;;;;0.40;0.30;;;4.50;99.90;;;;;;5029555;28;20237;-67
2023/01/10 00:08:16;;;;;;;0.60;0.30;;;4.60;99.90;;;;;;5028427;28;20194;-67
2023/01/10 00:10:43;;;;;;;0.50;0.47;;;4.60;99.90;;;;;;5028338;28;20228;-67
2023/01/10 00:13:22;;;;;;;0.90;0.80;;;4.60;99.90;;;;;;5028664;28;20213;-66
2023/01/10 00:15:51;;;;;;;0.40;0.38;;;4.60;99.90;;;;;;5028932;28;20282;-67
2023/01/10 00:18:18;;;;;;;1.45;0.82;;;4.60;99.90;;;;;;5028770;28;20203;-68
2023/01/10 00:20:46;;;;;;;0.55;0.40;;;4.60;99.90;;;;;;5028330;28;20232;-67
2023/01/10 00:23:13;;;;;;;0.93;0.40;;;4.60;99.90;;;;;;5029030;28;20663;-67
2023/01/10 00:25:41;;;;;;;0.30;0.20;;;4.60;99.90;;;;;;5028610;28;20231;-67
2023/01/10 00:28:18;;;;;;;0.70;0.63;;;4.60;99.90;;;;;;5028683;28;20210;-67
2023/01/10 00:30:50;;;;;;;0.88;0.88;;;4.50;99.90;;;;;;5028192;28;20713;-67
2023/01/10 00:33:19;;;;;;;0.30;0.30;;;4.60;99.90;;;;;;5028176;28;20298;-67
2023/01/10 00:35:46;;;;;;;0.40;0.40;;;4.50;99.90;;;;;;5028112;28;20231;-67
2023/01/10 00:38:13;;;;;;;0.30;0.20;;;4.50;99.90;;;;;;5028207;28;20204;-67
2023/01/10 00:40:40;;;;;;;0.38;0.38;;;4.50;99.90;;;;;;5028065;28;20226;-67
2023/01/10 00:45:53;;;;;;;0.40;0.28;;;4.50;99.90;;;;;;5027990;28;20225;-67
2023/01/10 00:48:21;;;;;;;0.30;0.20;;;4.50;99.90;;;;;;5028289;28;20615;-68
2023/01/10 00:50:48;;;;;;;0.35;0.35;;;4.50;99.90;;;;;;5027991;28;20227;-68
2023/01/10 00:53:15;;;;;;;0.40;0.40;;;4.40;99.90;;;;;;5027725;28;20667;-67
2023/01/10 00:55:41;;;;;;;0.30;0.30;;;4.50;99.90;;;;;;5028046;28;20256;-67
2023/01/10 00:58:10;;;;;;;0.50;0.50;;;4.50;99.90;;;;;;5026740;28;20204;-67
2023/01/10 01:00:37;;;;;;;0.40;0.30;;;4.50;99.90;;;;;;5028078;28;20224;-67
2023/01/10 01:03:05;;;;;;;0.50;0.50;;;4.60;99.90;;;;;;5027073;28;20204;-67
2023/01/10 01:05:33;;;;;;;0.35;0.32;;;4.50;99.90;;;;;;5027197;28;20806;-69
2023/01/10 01:08:00;;;;;;;0.70;0.30;;;4.50;99.90;;;;;;5027840;28;20509;-68
2023/01/10 01:10:27;;;;;;;0.65;0.40;;;4.50;99.90;;;;;;5027232;28;20960;-68
2023/01/10 01:12:54;;;;;;;0.50;0.40;;;4.60;99.90;;;;;;5027256;28;20220;-67
2023/01/10 01:15:21;;;;;;;0.30;0.22;;;4.60;99.90;;;;;;5028042;28;20209;-68
2023/01/10 01:17:48;;;;;;;0.65;0.57;;;4.60;99.90;;;;;;5028171;28;20674;-66
2023/01/10 01:20:15;;;;;;;0.40;0.32;;;4.60;99.90;;;;;;5028089;28;20211;-67
2023/01/10 01:22:44;;;;;;;0.95;0.65;;;4.60;99.90;;;;;;5027829;28;20216;-67
2023/01/10 01:25:10;;;;;;;0.60;0.40;;;4.60;99.90;;;;;;5027491;28;20201;-67
2023/01/10 01:27:37;;;;;;;7.40;0.75;;;4.50;99.90;;;;;;5028212;28;20211;-68
2023/01/10 01:30:06;;;;;;;0.30;0.20;;;4.40;99.90;;;;;;5028077;28;20639;-67
2023/01/10 01:32:33;;;;;;;0.80;0.80;;;4.40;99.90;;;;;;5027076;28;20292;-67
2023/01/10 01:35:00;;;;;;;0.30;0.20;;;4.50;99.90;;;;;;5027849;28;20213;-67
2023/01/10 01:37:27;;;;;;;0.73;0.43;;;4.40;99.90;;;;;;5028176;28;20220;-68
2023/01/10 01:39:55;;;;;;;0.30;0.20;;;4.50;99.90;;;;;;5026675;28;20201;-68
2023/01/10 01:42:25;;;;;;;0.40;0.30;;;4.40;99.90;;;;;;5025765;28;20221;-67
2023/01/10 01:45:36;;;;;;;0.40;0.30;;;4.40;99.90;;;;;;5027840;28;20212;-67
2023/01/10 01:48:13;;;;;;;0.30;0.20;;;4.40;99.90;;;;;;4984746;28;20198;-67
2023/01/10 01:50:46;;;;;;;0.30;0.30;;;4.40;99.90;;;;;;4985316;28;20229;-67
2023/01/10 01:53:18;;;;;;;0.93;0.93;;;4.40;99.90;;;;;;5011521;28;20217;-67
2023/01/10 01:55:47;;;;;;;0.30;0.30;;;4.40;99.90;;;;;;5027638;28;20231;-67
2023/01/10 01:58:18;;;;;;;0.30;0.20;;;4.40;99.90;;;;;;5027552;28;20201;-67
2023/01/10 02:00:45;;;;;;;0.30;0.30;;;4.30;99.90;;;;;;5027031;28;20243;-68
2023/01/10 02:03:12;;;;;;;0.30;0.30;;;4.30;99.90;;;;;;5027184;28;20210;-67
2023/01/10 02:05:42;;;;;;;0.38;0.38;;;4.30;99.90;;;;;;5025887;28;20810;-67
2023/01/10 02:08:09;;;;;;;0.30;0.20;;;4.30;99.90;;;;;;5027558;28;20309;-67
2023/01/10 02:10:41;;;;;;;0.40;0.40;;;4.20;99.90;;;;;;5026309;28;20251;-67
2023/01/10 02:13:15;;;;;;;0.40;0.40;;;4.30;99.90;;;;;;5026873;28;20565;-67
2023/01/10 02:15:43;;;;;;;0.45;0.45;;;4.30;99.90;;;;;;5027277;28;20721;-67
2023/01/10 02:18:11;;;;;;;0.30;0.20;;;4.20;99.90;;;;;;5027069;28;20201;-67
2023/01/10 02:20:50;;;;;;;0.30;0.20;;;4.20;99.90;;;;;;5026800;28;20224;-67
2023/01/10 02:23:59;;;;;;;0.30;0.20;;;4.20;99.90;;;;;;5026887;28;20565;-67
2023/01/10 02:26:55;;;;;;;0.30;0.30;;;4.10;99.90;;;;;;5026796;28;20259;-67
2023/01/10 02:30:02;;;;;;;0.30;0.28;;;4.10;99.90;;;;;;5020372;28;20227;-67
2023/01/10 02:32:40;;;;;;;0.40;0.40;;;4.10;99.90;;;;;;5015260;28;20201;-67
2023/01/10 02:35:19;;;;;;;0.30;0.30;;;4.10;99.90;;;;;;5026769;28;20690;-67
2023/01/10 02:37:56;;;;;;;0.50;0.30;;;4.10;99.90;;;;;;5027293;28;20631;-67
2023/01/10 02:40:30;;;;;;;0.30;0.30;;;4.10;99.90;;;;;;5014386;28;20239;-67
2023/01/10 02:43:05;;;;;;;0.47;0.30;;;4.10;99.90;;;;;;5026389;28;20287;-68
2023/01/10 02:45:38;;;;;;;0.55;0.50;;;4.00;99.90;;;;;;5026511;28;20748;-68
2023/01/10 02:48:08;;;;;;;0.30;0.30;;;4.00;99.90;;;;;;5027124;28;20204;-67
2023/01/10 02:50:48;;;;;;;0.40;0.40;;;4.00;99.90;;;;;;5026549;28;20223;-67
2023/01/10 02:53:21;;;;;;;0.30;0.20;;;4.00;99.90;;;;;;5026826;28;20756;-67
2023/01/10 02:56:13;;;;;;;0.40;0.30;;;4.00;99.90;;;;;;5026672;28;20279;-67
2023/01/10 02:59:10;;;;;;;0.32;0.32;;;3.90;99.90;;;;;;5026645;28;20281;-67
2023/01/10 03:01:48;;;;;;;0.30;0.20;;;3.80;99.90;;;;;;5026528;28;20220;-67
2023/01/10 03:04:30;;;;;;;7.22;0.55;;;3.80;99.90;;;;;;5026838;28;20192;-67
2023/01/10 03:07:07;;;;;;;0.30;0.20;;;3.90;99.90;;;;;;5026928;28;20249;-67
2023/01/10 03:09:42;;;;;;;0.30;0.30;;;3.80;99.90;;;;;;5026063;28;20234;-67
2023/01/10 03:12:13;;;;;;;0.30;0.20;;;3.80;99.90;;;;;;5026413;28;20574;-67
2023/01/10 03:14:42;;;;;;;0.30;0.20;;;3.80;99.90;;;;;;5027003;28;20188;-68
2023/01/10 03:17:13;;;;;;;0.30;0.20;;;3.80;99.90;;;;;;5026388;28;20232;-67
2023/01/10 03:19:46;;;;;;;0.45;0.38;;;3.80;99.90;;;;;;5025844;28;20217;-68
2023/01/10 03:22:14;;;;;;;0.50;0.50;;;3.80;99.90;;;;;;5028564;28;20301;-68
2023/01/10 03:24:48;;;;;;;0.40;0.40;;;3.80;99.90;;;;;;5029888;28;20668;-67
2023/01/10 03:27:22;;;;;;;0.30;0.30;;;3.80;99.90;;;;;;5029808;28;20638;-67
2023/01/10 03:29:58;;;;;;;0.50;0.30;;;3.80;99.90;;;;;;5029358;28;20200;-67
2023/01/10 03:32:30;;;;;;;0.40;0.30;;;3.80;99.90;;;;;;5028485;28;20247;-67
2023/01/10 03:35:01;;;;;;;1.65;0.82;;;3.80;99.90;;;;;;5029371;28;20820;-66
2023/01/10 03:37:35;;;;;;;0.50;0.50;;;3.90;99.90;;;;;;5029332;28;20200;-67
2023/01/10 03:40:09;;;;;;;1.35;0.63;;;3.90;99.90;;;;;;5013955;28;20215;-68
2023/01/10 03:45:43;;;;;;;0.30;0.20;;;3.90;99.90;;;;;;5029249;28;20224;-67
2023/01/10 03:48:14;;;;;;;0.30;0.20;;;3.90;99.90;;;;;;5029498;28;20208;-67
2023/01/10 03:50:45;;;;;;;0.60;0.40;;;4.80;99.90;;;;;;5028637;28;20239;-67
2023/01/10 03:53:14;;;;;;;0.30;0.30;;;4.10;99.90;;;;;;5028729;28;20683;-67
2023/01/10 03:55:44;;;;;;;0.30;0.20;;;3.90;99.90;;;;;;5028892;28;20706;-67
2023/01/10 03:58:12;;;;;;;0.40;0.40;;;3.90;99.90;;;;;;5027874;28;20906;-67
2023/01/10 04:00:40;;;;;;;0.52;0.45;;;4.00;99.90;;;;;;5009167;28;20274;-67
2023/01/10 04:03:09;;;;;;;0.73;0.57;;;4.00;99.90;;;;;;5023768;28;20832;-67
2023/01/10 04:05:37;;;;;;;0.30;0.28;;;3.90;99.90;;;;;;5026503;28;20224;-67
2023/01/10 04:08:07;;;;;;;0.40;0.30;;;3.90;99.90;;;;;;5028786;28;20197;-67
2023/01/10 04:10:36;;;;;;;0.43;0.43;;;3.90;99.90;;;;;;5028311;28;20327;-67
2023/01/10 04:13:05;;;;;;;1.55;0.75;;;3.90;99.90;;;;;;5028536;28;20197;-67
2023/01/10 04:15:33;;;;;;;0.30;0.30;;;4.00;99.90;;;;;;5028376;28;20217;-67
2023/01/10 04:18:02;;;;;;;0.77;0.45;;;3.80;99.90;;;;;;5028595;28;20981;-67
2023/01/10 04:20:29;;;;;;;0.57;0.57;;;3.90;99.90;;;;;;5028370;28;20295;-69
2023/01/10 04:22:57;;;;;;;0.55;0.55;;;3.90;99.90;;;;;;5028201;28;20849;-66
2023/01/10 04:25:25;;;;;;;0.38;0.38;;;3.70;99.90;;;;;;5028350;28;20224;-67
2023/01/10 04:27:52;;;;;;;1.20;1.10;;;3.80;99.90;;;;;;5028258;28;20201;-67
2023/01/10 04:30:20;;;;;;;0.30;0.20;;;3.80;99.90;;;;;;5027699;28;20672;-67
2023/01/10 04:32:47;;;;;;;0.40;0.40;;;3.80;99.90;;;;;;5026195;28;21159;-67
2023/01/10 04:35:14;;;;;;;0.40;0.40;;;3.80;99.90;;;;;;5028303;28;20552;-68
2023/01/10 04:37:42;;;;;;;0.82;0.70;;;3.80;99.90;;;;;;5028245;28;20201;-67
2023/01/10 04:40:10;;;;;;;0.50;0.50;;;3.80;99.90;;;;;;5027574;28;20725;-68
2023/01/10 04:42:38;;;;;;;0.40;0.40;;;3.80;99.90;;;;;;5022135;28;20634;-67
2023/01/10 04:45:07;;;;;;;0.30;0.30;;;3.80;99.90;;;;;;5023205;28;20276;-67
2023/01/10 04:47:33;;;;;;;0.60;0.52;;;3.80;99.90;;;;;;5028076;28;20279;-67
2023/01/10 04:50:00;;;;;;;0.80;0.63;;;3.80;99.90;;;;;;5027899;28;20575;-67
2023/01/10 04:52:27;;;;;;;0.40;0.30;;;3.70;99.90;;;;;;5027556;28;20580;-67
2023/01/10 04:54:54;;;;;;;0.30;0.30;;;3.70;99.90;;;;;;5028250;28;20219;-67
2023/01/10 04:57:20;;;;;;;1.23;0.43;;;3.70;99.90;;;;;;5027307;28;20718;-67
2023/01/10 04:59:48;;;;;;;0.70;0.50;;;3.70;99.90;;;;;;5026396;28;20204;-67
2023/01/10 05:02:16;;;;;;;0.98;0.88;;;3.70;99.90;;;;;;5027645;28;20274;-67
2023/01/10 05:04:42;;;;;;;0.40;0.35;;;3.40;99.90;;;;;;5027340;28;20554;-67
2023/01/10 05:07:09;;;;;;;0.30;0.20;;;3.60;99.90;;;;;;5027830;28;20300;-66
2023/01/10 05:09:36;;;;;;;0.57;0.40;;;3.60;99.90;;;;;;5027238;28;20276;-67
2023/01/10 05:12:03;;;;;;;8.15;0.52;;;3.50;99.90;;;;;;5027157;28;20580;-68
2023/01/10 05:14:30;;;;;;;0.30;0.28;;;3.50;99.90;;;;;;5026862;28;20200;-68
2023/01/10 05:16:58;;;;;;;0.30;0.30;;;3.20;99.90;;;;;;5026830;28;20213;-67
2023/01/10 05:19:25;;;;;;;0.95;0.57;;;3.50;99.90;;;;;;5027698;28;20280;-67
2023/01/10 05:21:52;;;;;;;0.40;0.40;;;3.50;99.90;;;;;;5027081;28;20246;-67
2023/01/10 05:24:18;;;;;;;1.08;0.73;;;3.50;99.90;;;;;;5027388;28;20207;-68
2023/01/10 05:26:45;;;;;;;1.27;0.80;;;3.40;99.90;;;;;;5026650;28;20595;-67
2023/01/10 05:29:13;;;;;;;0.30;0.20;;;3.50;99.90;;;;;;5027522;28;20196;-67
2023/01/10 05:31:40;;;;;;;1.75;0.90;;;3.50;99.90;;;;;;5026949;28;20234;-67
2023/01/10 05:34:11;;;;;;;0.30;0.30;;;3.50;99.90;;;;;;5026851;28;20193;-67
2023/01/10 05:36:38;;;;;;;0.35;0.35;;;3.50;99.90;;;;;;5025959;28;20228;-66
2023/01/10 05:39:05;;;;;;;0.30;0.20;;;3.60;99.90;;;;;;5026921;28;20235;-67
2023/01/10 05:41:32;;;;;;;0.40;0.40;;;3.60;99.90;;;;;;5026238;28;20238;-67
2023/01/10 05:43:58;;;;;;;0.70;0.70;;;3.70;99.90;;;;;;5026748;28;20193;-67
2023/01/10 05:46:25;;;;;;;0.40;0.40;;;3.70;99.90;;;;;;5026953;28;21093;-66
2023/01/10 05:48:52;;;;;;;0.57;0.40;;;3.70;99.90;;;;;;5027213;28;20283;-67
2023/01/10 05:51:20;;;;;;;0.73;0.73;;;3.70;99.90;;;;;;5026186;28;20227;-67
2023/01/10 05:53:47;;;;;;;0.70;0.60;;;3.70;99.90;;;;;;5025892;28;20189;-67
2023/01/10 05:56:13;;;;;;;0.35;0.35;;;3.70;99.90;;;;;;5027195;28;20233;-66
2023/01/10 05:58:40;;;;;;;0.60;0.40;;;3.70;99.90;;;;;;5023887;28;20207;-66
2023/01/10 06:01:08;;;;;;;1.25;1.25;;;3.70;99.90;;;;;;5026525;28;20244;-67
2023/01/10 06:03:35;;;;;;;0.65;0.45;;;3.80;99.90;;;;;;5026835;28;20202;-67
2023/01/10 06:06:02;;;;;;;0.40;0.40;;;3.40;99.90;;;;;;5022762;28;20225;-67
2023/01/10 06:08:30;;;;;;;0.55;0.50;;;3.80;99.90;;;;;;5022545;28;20271;-67
2023/01/10 06:10:57;;;;;;;0.60;0.52;;;3.80;99.90;;;;;;5022822;28;20231;-66
2023/01/10 06:13:24;;;;;;;0.40;0.30;;;3.80;99.90;;;;;;5026047;28;20204;-66
2023/01/10 06:15:51;;;;;;;0.30;0.30;;;3.90;99.90;;;;;;5026141;28;20230;-66
2023/01/10 06:18:18;;;;;;;0.45;0.45;;;3.90;99.90;;;;;;5026232;28;20242;-67
2023/01/10 06:20:44;;;;;;;0.30;0.20;;;3.80;99.90;;;;;;5025937;28;20232;-67
2023/01/10 06:23:11;;;;;;;1.42;0.52;;;3.80;99.90;;;;;;5024455;28;20651;-66
2023/01/10 06:25:40;;;;;;;0.88;0.75;;;3.80;99.90;;;;;;5026963;28;20229;-66
2023/01/10 06:28:07;;;;;;;0.30;0.30;;;3.90;99.90;;;;;;5023380;28;20207;-67
2023/01/10 06:30:34;;;;;;;0.90;0.80;;;3.90;99.90;;;;;;5029709;28;20302;-67
2023/01/10 06:33:02;;;;;;;3.80;1.50;;;3.90;99.90;;;;;;5025656;28;20216;-67
2023/01/10 06:35:29;;;;;;;1.13;0.73;;;3.90;99.90;;;;;;5026188;28;20232;-68
2023/01/10 06:37:56;;;;;;;0.60;0.60;;;3.90;99.90;;;;;;5026895;28;20215;-67
2023/01/10 06:40:23;;;;;;;0.40;0.40;;;3.90;99.90;;;;;;5025988;28;20209;-67
2023/01/10 06:42:51;;;;;;;0.50;0.50;;;3.90;99.90;;;;;;5025132;28;20621;-68
2023/01/10 06:45:18;;;;;;;0.40;0.40;;;3.90;99.90;;;;;;5027097;28;20215;-67
2023/01/10 06:47:45;;;;;;;0.30;0.30;;;3.90;99.90;;;;;;5025637;28;20203;-67
2023/01/10 06:50:13;;;;;;;0.50;0.50;;;3.80;99.90;;;;;;5024412;28;20209;-67
2023/01/10 06:52:41;;;;;;;0.85;0.50;;;3.80;99.90;;;;;;5025802;28;20203;-68
2023/01/10 06:55:08;;;;;;;0.40;0.30;;;3.70;99.90;;;;;;5026798;28;20208;-67
2023/01/10 06:57:37;;;;;;;1.63;0.98;;;3.70;99.90;;;;;;5030304;28;20208;-67
2023/01/10 07:00:08;;;;;;;0.30;0.30;;;3.70;99.90;;;;;;5014269;28;20243;-68
2023/01/10 07:02:34;;;;;;;2.03;0.88;;;3.70;99.90;;;;;;5009762;28;20233;-68
2023/01/10 07:05:01;;;;;;;1.08;0.30;;;3.70;99.90;;;;;;5010605;28;20210;-67
2023/01/10 07:07:28;;;;;;;0.30;0.20;;;3.70;99.90;;;;;;5011076;28;20315;-67
2023/01/10 07:09:55;;;;;;;2.42;1.42;;;3.70;99.90;;;;;;5010830;28;20224;-68
2023/01/10 07:12:21;;;;;;;6.90;1.13;;;3.70;99.90;;;;;;5009793;28;20240;-67
2023/01/10 07:14:48;;;;;;;0.30;0.30;;;3.80;99.90;;;;;;5010235;28;20232;-67
2023/01/10 07:17:16;;;;;;;0.40;0.40;;;3.80;99.90;;;;;;5010259;28;20676;-67
2023/01/10 07:19:43;;;;;;;0.30;0.20;;;3.80;99.90;;;;;;5010510;28;20205;-68
2023/01/10 07:22:11;;;;;;;0.63;0.55;;;3.80;99.90;;;;;;5009504;28;20333;-67
2023/01/10 07:24:38;;;;;;;0.82;0.45;;;3.80;99.90;;;;;;5010432;28;20201;-67
2023/01/10 07:27:04;;;;;;;0.30;0.20;;;4.00;99.90;;;;;;5010406;28;20231;-67
2023/01/10 07:29:31;;;;;;;2.45;0.70;;;4.00;99.90;;;;;;5010165;28;20198;-67
2023/01/10 07:31:58;;;;;;;0.30;0.30;;;4.00;99.90;;;;;;5008849;28;20217;-68
2023/01/10 07:34:26;;;;;;;0.30;0.30;;;4.10;99.90;;;;;;5010715;28;20212;-67
2023/01/10 07:36:53;;;;;;;0.32;0.32;;;4.10;99.90;;;;;;5009776;28;20619;-67
2023/01/10 07:39:20;;;;;;;0.43;0.30;;;4.10;99.90;;;;;;5010488;28;20205;-68
2023/01/10 07:41:47;;;;;;;2.47;1.33;;;4.20;99.90;;;;;;5008845;28;20351;-67
2023/01/10 07:44:14;;;;;;;0.30;0.20;;;4.20;99.90;;;;;;5028341;28;20195;-68
2023/01/10 07:46:41;;;;;;;0.40;0.40;;;4.20;99.90;;;;;;5029899;28;20227;-67
2023/01/10 07:49:07;;;;;;;1.35;0.68;;;4.20;99.90;;;;;;5028832;28;20211;-67
2023/01/10 07:51:36;;;;;;;0.40;0.30;;;4.20;99.90;;;;;;5028114;28;20851;-68
2023/01/10 07:54:03;;;;;;;1.08;1.08;;;4.30;99.90;;;;;;5029952;28;20201;-67
2023/01/10 07:56:30;;;;;;;1.13;1.02;;;4.20;99.90;;;;;;5029517;28;20612;-68
2023/01/10 07:58:57;;;;;;;0.30;0.30;;;4.10;99.90;;;;;;5022189;28;20201;-68
2023/01/10 08:01:24;;;;;;;0.40;0.30;;;4.30;99.90;;;;;;5008679;28;20324;-67
2023/01/10 08:03:51;;;;;;;1.15;1.15;;;4.30;99.90;;;;;;5009841;28;20225;-68
2023/01/10 08:06:18;;;;;;;0.77;0.50;;;4.40;99.90;;;;;;5009341;28;20786;-68
2023/01/10 08:08:46;;;;;;;2.92;1.13;;;4.40;99.90;;;;;;5009723;28;20205;-67
2023/01/10 08:11:13;;;;;;;0.43;0.43;;;4.40;99.90;;;;;;5008314;28;20233;-68
2023/01/10 08:13:40;;;;;;;0.50;0.40;;;4.40;99.90;;;;;;5009414;28;20201;-68
2023/01/10 08:16:08;;;;;;;0.50;0.47;;;4.40;99.90;;;;;;5009364;28;20237;-66
2023/01/10 08:18:35;;;;;;;0.50;0.50;;;4.30;99.90;;;;;;5009659;28;20206;-67
2023/01/10 08:21:01;;;;;;;0.70;0.50;;;4.50;99.90;;;;;;5008121;28;20240;-67
2023/01/10 08:23:29;;;;;;;0.60;0.50;;;4.60;99.90;;;;;;5009656;28;20201;-67
2023/01/10 08:25:58;;;;;;;0.60;0.60;;;4.80;99.90;;;;;;5008885;28;20229;-68
2023/01/10 08:28:24;;;;;;;0.75;0.75;;;4.60;99.90;;;;;;5009632;28;20214;-67
2023/01/10 08:30:54;;;;;;;0.68;0.50;;;4.60;99.90;;;;;;5008281;28;20232;-68
2023/01/10 08:33:21;;;;;;;0.60;0.50;;;4.60;99.90;;;;;;5009359;28;20216;-67
2023/01/10 08:35:48;;;;;;;0.90;0.90;;;4.60;99.90;;;;;;5008779;28;20237;-67
2023/01/10 08:38:15;;;;;;;7.25;1.05;;;4.70;99.90;;;;;;5009199;28;20295;-67
2023/01/10 08:40:42;;;;;;;2.88;0.93;;;4.60;99.90;;;;;;5008365;28;20217;-67
2023/01/10 08:43:11;;;;;;;1.85;1.15;;;4.60;99.90;;;;;;5017789;28;20203;-68
2023/01/10 08:45:38;;;;;;;3.92;1.25;;;4.70;99.90;;;;;;5028193;28;20225;-68
2023/01/10 08:48:08;;;;;;;0.63;0.63;;;4.70;99.90;;;;;;5029020;28;20196;-67
2023/01/10 08:50:35;;;;;;;0.93;0.93;;;4.70;99.90;;;;;;5028334;28;20274;-67
2023/01/10 08:53:02;;;;;;;6.68;1.60;;;4.80;99.90;;;;;;5027299;28;20208;-69
2023/01/10 08:55:30;;;;;;;1.13;0.98;;;4.80;99.90;;;;;;5028570;28;20379;-67
2023/01/10 08:57:59;;;;;;;1.52;0.90;;;4.80;99.90;;;;;;5028896;28;20307;-67
2023/01/10 09:00:28;;;;;;;1.05;0.50;;;4.80;99.90;;;;;;5008839;28;20765;-67
2023/01/10 09:02:54;;;;;;;0.60;0.60;;;4.70;99.90;;;;;;5007479;28;20240;-67
2023/01/10 09:05:21;;;;;;;1.73;1.15;;;4.80;99.90;;;;;;5008610;28;20671;-67
2023/01/10 09:07:48;;;;;;;5.10;0.60;;;4.80;99.90;;;;;;5008023;28;20217;-68
2023/01/10 09:10:15;;;;;;;0.70;0.70;;;4.80;99.90;;;;;;5008567;28;20252;-66
2023/01/10 09:12:58;;;;;;;1.67;0.70;;;4.80;99.90;;;;;;5007625;28;20205;-67
2023/01/10 09:15:29;;;;;;;0.52;0.40;;;4.90;99.90;;;;;;5008319;28;20233;-68
2023/01/10 09:17:56;;;;;;;0.55;0.55;;;5.00;99.90;;;;;;5008010;28;20202;-67
2023/01/10 09:20:24;;;;;;;2.25;1.65;;;5.10;99.90;;;;;;5007620;28;20223;-67
2023/01/10 09:22:52;;;;;;;2.15;1.10;;;5.10;99.90;;;;;;5007188;28;20233;-67
2023/01/10 09:25:18;;;;;;;0.75;0.50;;;5.00;99.90;;;;;;5008240;28;20227;-67
2023/01/10 09:27:45;;;;;;;0.47;0.40;;;5.00;99.90;;;;;;5008197;28;20213;-67
2023/01/10 09:30:13;;;;;;;0.88;0.80;;;4.90;99.90;;;;;;5008058;28;20211;-68
2023/01/10 09:32:41;;;;;;;0.70;0.70;;;4.60;99.90;;;;;;5006474;28;20273;-66
2023/01/10 09:35:08;;;;;;;1.38;1.25;;;4.90;99.90;;;;;;5007907;28;20667;-68
2023/01/10 09:37:36;;;;;;;0.77;0.75;;;5.00;99.90;;;;;;5007979;28;20198;-67
2023/01/10 09:40:05;;;;;;;0.30;0.28;;;5.10;99.90;;;;;;5008149;28;20201;-68
2023/01/10 09:42:49;;;;;;;0.60;0.60;;;5.00;99.90;;;;;;5011851;28;20221;-68
2023/01/10 09:45:20;;;;;;;0.55;0.55;;;4.90;99.90;;;;;;5026923;28;20211;-67
2023/01/10 09:47:53;;;;;;;1.05;0.40;;;4.90;99.90;;;;;;5027704;28;20270;-67
2023/01/10 09:50:29;;;;;;;0.40;0.40;;;5.00;99.90;;;;;;5027589;28;20629;-67
2023/01/10 09:53:02;;;;;;;0.88;0.88;;;5.00;99.90;;;;;;5026512;28;20200;-67
2023/01/10 09:55:32;;;;;;;0.60;0.55;;;4.90;99.90;;;;;;5026855;28;20228;-67
2023/01/10 09:58:01;;;;;;;0.60;0.60;;;5.10;99.90;;;;;;5028125;28;20280;-67
2023/01/10 10:00:36;;;;;;;0.60;0.60;;;5.20;99.90;;;;;;5007830;28;20235;-68
2023/01/10 10:03:12;;;;;;;0.50;0.30;;;5.20;99.90;;;;;;5006842;28;20319;-68
2023/01/10 10:05:39;;;;;;;0.82;0.65;;;5.20;99.90;;;;;;5007509;28;20224;-67
2023/01/10 10:08:11;;;;;;;1.20;0.50;;;5.20;99.90;;;;;;5007024;28;20567;-67
2023/01/10 10:10:41;;;;;;;0.85;0.85;;;5.10;99.90;;;;;;5007497;28;20225;-67
2023/01/10 10:13:20;;;;;;;0.40;0.30;;;5.20;99.90;;;;;;5006739;28;20208;-67
2023/01/10 10:15:53;;;;;;;0.57;0.47;;;5.10;99.90;;;;;;5007136;28;20225;-67
2023/01/10 10:18:36;;;;;;;0.55;0.45;;;5.20;99.90;;;;;;5007464;28;20213;-67
2023/01/10 10:21:06;;;;;;;1.67;0.50;;;5.20;99.90;;;;;;5006602;28;20236;-67
2023/01/10 10:23:48;;;;;;;0.35;0.35;;;5.30;99.90;;;;;;5007588;28;20229;-67
2023/01/10 10:26:25;;;;;;;0.30;0.20;;;5.40;99.90;;;;;;5007297;28;20320;-68
2023/01/10 10:29:13;;;;;;;0.60;0.38;;;5.40;99.90;;;;;;5007292;28;20208;-68
2023/01/10 10:32:00;;;;;;;0.30;0.20;;;5.50;99.90;;;;;;5008210;28;20729;-67
2023/01/10 10:34:35;;;;;;;0.70;0.70;;;5.40;99.90;;;;;;5011370;28;20284;-67
2023/01/10 10:37:06;;;;;;;3.40;1.83;;;5.40;99.90;;;;;;5011316;28;20224;-67
2023/01/10 10:39:38;;;;;;;0.50;0.43;;;5.50;99.90;;;;;;5011001;28;20825;-68
2023/01/10 10:42:10;;;;;;;0.98;0.88;;;5.50;99.90;;;;;;5011274;28;20241;-67
2023/01/10 10:44:41;;;;;;;0.30;0.25;;;5.50;99.90;;;;;;5030991;28;20747;-68
2023/01/10 10:47:14;;;;;;;0.70;0.70;;;5.60;99.90;;;;;;5030986;28;20232;-67
2023/01/10 10:49:47;;;;;;;0.70;0.50;;;5.60;99.90;;;;;;5030489;28;20201;-68
2023/01/10 10:52:21;;;;;;;0.68;0.68;;;5.80;99.90;;;;;;5029573;28;20226;-68
2023/01/10 10:54:48;;;;;;;0.35;0.35;;;5.80;99.90;;;;;;5030868;28;20208;-67
2023/01/10 10:57:16;;;;;;;0.40;0.40;;;5.70;99.90;;;;;;5030571;28;20235;-67
2023/01/10 10:59:46;;;;;;;0.30;0.30;;;5.70;99.90;;;;;;5017583;28;20288;-67
2023/01/10 11:02:25;;;;;;;0.50;0.30;;;5.80;99.90;;;;;;5009326;28;20241;-68
2023/01/10 11:04:57;;;;;;;0.45;0.45;;;5.80;99.90;;;;;;5010968;28;20573;-67
2023/01/10 11:07:25;;;;;;;0.40;0.30;;;5.90;99.90;;;;;;5010795;28;20237;-68
2023/01/10 11:09:59;;;;;;;0.60;0.60;;;5.90;99.90;;;;;;5010558;28;20284;-67
2023/01/10 11:12:32;;;;;;;0.30;0.20;;;6.00;99.90;;;;;;5009944;28;20233;-67
2023/01/10 11:15:00;;;;;;;0.55;0.55;;;6.00;99.90;;;;;;5010354;28;20685;-67
2023/01/10 11:17:30;;;;;;;0.47;0.40;;;6.00;99.90;;;;;;5011070;28;20229;-68
2023/01/10 11:20:05;;;;;;;1.38;0.38;;;6.00;99.90;;;;;;5010896;28;20205;-67
2023/01/10 11:22:38;;;;;;;2.75;0.68;;;5.90;99.90;;;;;;5009625;28;20221;-68
2023/01/10 11:25:12;;;;;;;0.50;0.40;;;5.90;99.90;;;;;;5010044;28;20215;-68
2023/01/10 11:27:47;;;;;;;3.90;0.60;;;5.70;99.90;;;;;;5010973;28;20292;-67
2023/01/10 11:30:21;;;;;;;0.65;0.50;;;5.90;99.90;;;;;;5010222;28;20229;-67
2023/01/10 11:32:52;;;;;;;0.63;0.60;;;6.00;99.90;;;;;;5009573;28;20221;-68
2023/01/10 11:35:25;;;;;;;0.40;0.20;;;6.10;99.90;;;;;;5009839;28;20216;-67
2023/01/10 11:38:03;;;;;;;1.13;1.13;;;6.00;99.90;;;;;;5010267;28;20208;-67
2023/01/10 11:40:31;;;;;;;1.60;0.70;;;6.00;99.90;;;;;;5009943;28;20233;-67
2023/01/10 11:42:59;;;;;;;0.30;0.28;;;6.00;99.90;;;;;;5017280;28;20226;-67
2023/01/10 11:45:32;;;;;;;0.73;0.73;;;6.10;99.90;;;;;;5029743;28;20228;-67
2023/01/10 11:48:07;;;;;;;0.30;0.30;;;6.20;99.90;;;;;;5029945;28;20283;-68
2023/01/10 11:50:38;;;;;;;0.82;0.50;;;6.20;99.90;;;;;;5028171;28;20726;-67
2023/01/10 11:53:06;;;;;;;0.30;0.20;;;6.20;99.90;;;;;;5029196;28;20217;-67
2023/01/10 11:55:36;;;;;;;0.60;0.60;;;6.20;99.90;;;;;;5029327;28;20221;-67
2023/01/10 11:58:05;;;;;;;0.40;0.30;;;6.10;99.90;;;;;;5029904;28;20207;-67
2023/01/10 12:00:36;;;;;;;0.65;0.43;;;6.10;99.90;;;;;;5028772;28;20227;-68
2023/01/10 12:03:19;;;;;;;6.43;0.85;;;6.20;99.90;;;;;;5028697;28;20726;-67
2023/01/10 12:05:55;;;;;;;3.35;0.80;;;6.30;99.90;;;;;;5029275;28;20224;-68
2023/01/10 12:08:31;;;;;;;0.35;0.25;;;6.40;99.90;;;;;;5029556;28;20208;-67
2023/01/10 12:11:00;;;;;;;0.73;0.70;;;6.40;99.90;;;;;;5027827;28;20224;-68
2023/01/10 12:13:29;;;;;;;0.43;0.43;;;6.30;99.90;;;;;;5029391;28;20221;-67
2023/01/10 12:16:14;;;;;;;0.75;0.75;;;6.30;99.90;;;;;;5029281;28;20224;-67
2023/01/10 12:18:41;;;;;;;0.47;0.40;;;6.40;99.90;;;;;;5029377;28;20207;-67
2023/01/10 12:21:12;;;;;;;0.63;0.55;;;6.60;99.90;;;;;;5027823;28;20976;-67
2023/01/10 12:23:43;;;;;;;0.45;0.45;;;6.50;99.90;;;;;;5028937;28;20686;-68
2023/01/10 12:26:12;;;;;;;0.98;0.73;;;6.70;99.90;;;;;;5029303;28;20315;-67
2023/01/10 12:28:41;;;;;;;0.40;0.32;;;6.60;99.90;;;;;;5029098;28;20291;-67
2023/01/10 12:31:13;;;;;;;1.15;0.80;;;6.60;99.90;;;;;;5027752;28;20223;-68
2023/01/10 12:33:46;;;;;;;0.40;0.20;;;6.60;99.70;;;;;;5029210;28;20709;-67
2023/01/10 12:36:26;;;;;;;0.40;0.30;;;6.50;99.30;;;;;;5028285;28;20235;-67
2023/01/10 12:39:05;;;;;;;0.30;0.20;;;6.40;99.90;;;;;;5029004;28;20567;-67
2023/01/10 12:44:32;;;;;;;0.40;0.40;;;6.70;99.90;;;;;;5008555;28;20557;-67
2023/01/10 12:47:05;;;;;;;0.30;0.28;;;6.70;99.90;;;;;;5009100;28;20229;-68
2023/01/10 12:49:35;;;;;;;0.63;0.63;;;6.90;99.90;;;;;;5007853;28;20205;-68
2023/01/10 12:52:07;;;;;;;0.50;0.50;;;6.90;99.20;;;;;;5007680;28;20648;-67
2023/01/10 12:54:34;;;;;;;1.13;1.00;;;7.00;99.20;;;;;;5007566;28;20686;-68
2023/01/10 12:57:05;;;;;;;6.40;0.65;;;7.10;98.50;;;;;;5008425;28;20849;-68
2023/01/10 12:59:37;;;;;;;0.88;0.40;;;7.20;98.90;;;;;;5020185;28;20793;-68
2023/01/10 13:02:06;;;;;;;0.40;0.20;;;7.00;96.50;;;;;;5027540;28;20227;-67
2023/01/10 13:04:36;;;;;;;0.60;0.50;;;6.80;97.70;;;;;;5028499;28;20219;-69
2023/01/10 13:07:05;;;;;;;2.25;0.65;;;6.80;98.00;;;;;;5028133;28;20222;-68
2023/01/10 13:09:33;;;;;;;3.92;0.77;;;6.80;97.90;;;;;;5028026;28;20288;-67
2023/01/10 13:12:07;;;;;;;0.50;0.50;;;6.80;97.10;;;;;;5027255;28;20298;-68
2023/01/10 13:14:38;;;;;;;0.67;0.67;;;6.80;97.80;;;;;;5028463;28;20211;-68
2023/01/10 13:17:17;;;;;;;0.60;0.60;;;6.80;97.40;;;;;;5028053;28;20648;-67
2023/01/10 13:20:04;;;;;;;0.65;0.50;;;6.70;96.60;;;;;;5027803;28;20638;-67
2023/01/10 13:22:35;;;;;;;0.40;0.30;;;6.70;97.90;;;;;;5026781;28;20877;-67